Terminal Aerodrome Forecast
Issued by NWS

Home | Current Version | Previous Version | Text Only | Print | Product List | Glossary On
Versions: 1 2 3 4 5 6 7 8 9 10 11 12 13 14
000
FTAK31 PANC 241139
TAFATK
TAF
PATK 241139Z 2412/2512 VRB03KT P6SM BKN200
     FM241600 VRB03KT P6SM BKN080
     FM250000 VRB03KT P6SM BKN060=

USA.gov is the U.S. government's official web portal to all federal, state and local government web resources and services.